| time (UTC) | temp F | wind direction | speed MPH | gust MPH | rain 1hr in | rain 24hr in | rain mn in | humidity % | barometer mb |
| 20260502183405 | 62 | 233 | 5.0 | 12.0 | 0.00 | 0.00 | 0.00 | 37 | 1013.6 |
| 20260502182505 | 62 | 242 | 4.0 | 12.0 | 0.00 | 0.00 | 0.00 | 37 | 1013.9 |
| 20260502181605 | 61 | 224 | 6.0 | 16.0 | 0.00 | 0.00 | 0.00 | 36 | 1014.0 |
| 20260502180705 | 61 | 228 | 5.0 | 14.0 | 0.00 | 0.00 | 0.00 | 38 | 1014.1 |
| 20260502170405 | 59 | 254 | 4.0 | 16.0 | 0.00 | 0.00 | 0.00 | 36 | 1015.3 |
| 20260502163705 | 58 | 259 | 4.0 | 13.0 | 0.00 | 0.00 | 0.00 | 36 | 1015.6 |
| 20260502162805 | 57 | 248 | 4.0 | 9.0 | 0.00 | 0.00 | 0.00 | 39 | 1015.8 |
| 20260502161905 | 56 | 225 | 6.0 | 12.0 | 0.00 | 0.00 | 0.00 | 38 | 1015.9 |
| 20260502161005 | 56 | 225 | 5.0 | 12.0 | 0.00 | 0.00 | 0.00 | 40 | 1016.1 |
| 20260502151605 | 54 | 253 | 4.0 | 10.0 | 0.00 | 0.00 | 0.00 | 44 | 1016.7 |
| 20260502150705 | 54 | 263 | 4.0 | 10.0 | 0.00 | 0.00 | 0.00 | 46 | 1016.8 |
| 20260502123404 | 42 | 274 | 1.0 | 5.0 | 0.00 | 0.00 | 0.00 | 70 | 1017.4 |
| 20260502122504 | 42 | 314 | 1.0 | 4.0 | 0.00 | 0.00 | 0.00 | 71 | 1017.4 |
| 20260502121604 | 42 | 336 | 1.0 | 4.0 | 0.00 | 0.00 | 0.00 | 72 | 1017.5 |
| 20260502120704 | 41 | 346 | 2.0 | 8.0 | 0.00 | 0.00 | 0.00 | 71 | 1017.5 |
| 20260502114904 | 40 | 282 | 2.0 | 7.0 | 0.00 | 0.00 | 0.00 | 72 | 1017.5 |
| 20260502114004 | 40 | 257 | 2.0 | 8.0 | 0.00 | 0.00 | 0.00 | 73 | 1017.5 |
| 20260502112204 | 40 | 253 | 1.0 | 5.0 | 0.00 | 0.00 | 0.00 | 73 | 1017.5 |
| 20260502111304 | 40 | 254 | 1.0 | 5.0 | 0.00 | 0.00 | 0.00 | 74 | 1017.3 |
| 20260502110404 | 40 | 262 | 1.0 | 5.0 | 0.00 | 0.00 | 0.00 | 73 | 1017.3 |
| 20260502105504 | 40 | 252 | 1.0 | 5.0 | 0.00 | 0.00 | 0.00 | 72 | 1017.4 |
| 20260502104604 | 40 | 253 | 2.0 | 7.0 | 0.00 | 0.00 | 0.00 | 72 | 1017.3 |
| 20260502103704 | 40 | 256 | 2.0 | 6.0 | 0.00 | 0.00 | 0.00 | 71 | 1017.3 |
| 20260502102804 | 40 | 259 | 2.0 | 7.0 | 0.00 | 0.00 | 0.00 | 71 | 1017.4 |
| 20260502101904 | 40 | 258 | 2.0 | 6.0 | 0.00 | 0.00 | 0.00 | 70 | 1017.4 |
| 20260502101004 | 40 | 252 | 1.0 | 6.0 | 0.00 | 0.00 | 0.00 | 71 | 1017.3 |
| 20260502100104 | 40 | 243 | 0.0 | 3.0 | 0.00 | 0.00 | 0.00 | 71 | 1017.3 |
| 20260502071003 | 43 | 246 | 0.0 | 4.0 | 0.00 | 0.00 | 0.00 | 60 | 1017.4 |
| 20260502065203 | 43 | 234 | 0.0 | 3.0 | 0.00 | 0.00 | 0.00 | 61 | 1017.6 |
| 20260502064303 | 43 | 241 | 0.0 | 1.0 | 0.00 | 0.00 | 0.00 | 61 | 1017.6 |
| 20260502063403 | 43 | 256 | 0.0 | 1.0 | 0.00 | 0.00 | 0.00 | 61 | 1017.7 |
| 20260502062503 | 43 | 256 | 0.0 | 3.0 | 0.00 | 0.00 | 0.00 | 60 | 1017.7 |
| 20260502061603 | 43 | 337 | 0.0 | 1.0 | 0.00 | 0.00 | 0.00 | 61 | 1017.6 |
| 20260502060703 | 43 | 238 | 0.0 | 3.0 | 0.00 | 0.00 | 0.00 | 61 | 1017.6 |
| 20260502055803 | 44 | 246 | 0.0 | 4.0 | 0.00 | 0.00 | 0.00 | 61 | 1017.6 |
| 20260502054903 | 44 | 238 | 0.0 | 3.0 | 0.00 | 0.00 | 0.00 | 59 | 1017.6 |
| 20260502054003 | 44 | 248 | 0.0 | 2.0 | 0.00 | 0.00 | 0.00 | 59 | 1017.7 |
| 20260502053103 | 44 | 265 | 0.0 | 2.0 | 0.00 | 0.00 | 0.00 | 59 | 1017.6 |
| 20260502051303 | 44 | 248 | 0.0 | 3.0 | 0.00 | 0.00 | 0.00 | 60 | 1017.7 |
| 20260502050403 | 43 | 261 | 0.0 | 3.0 | 0.00 | 0.00 | 0.00 | 63 | 1017.7 |
| 20260502045503 | 43 | 266 | 0.0 | 2.0 | 0.00 | 0.00 | 0.00 | 63 | 1017.6 |
| 20260502044603 | 43 | 0 | 0.0 | 0.0 | 0.00 | 0.00 | 0.00 | 63 | 1017.5 |
| 20260502043703 | 43 | 0 | 0.0 | 0.0 | 0.00 | 0.00 | 0.00 | 63 | 1017.6 |
| 20260502042803 | 43 | 0 | 0.0 | 0.0 | 0.00 | 0.00 | 0.00 | 62 | 1017.6 |
| 20260502041903 | 43 | 0 | 0.0 | 0.0 | 0.00 | 0.00 | 0.00 | 62 | 1017.6 |
| 20260502041003 | 43 | 0 | 0.0 | 0.0 | 0.00 | 0.00 | 0.00 | 63 | 1017.6 |
| 20260502035203 | 44 | 0 | 0.0 | 0.0 | 0.00 | 0.00 | 0.00 | 64 | 1017.6 |
| 20260502034303 | 44 | 0 | 0.0 | 0.0 | 0.00 | 0.00 | 0.00 | 65 | 1017.6 |
| 20260502032503 | 45 | 0 | 0.0 | 0.0 | 0.00 | 0.00 | 0.00 | 63 | 1017.6 |
| 20260502031603 | 45 | 0 | 0.0 | 0.0 | 0.00 | 0.00 | 0.00 | 63 | 1017.6 |
| 20260502030702 | 46 | 0 | 0.0 | 0.0 | 0.00 | 0.00 | 0.00 | 62 | 1017.6 |
| 20260502025803 | 46 | 0 | 0.0 | 0.0 | 0.00 | 0.00 | 0.00 | 60 | 1017.5 |
| 20260502024902 | 46 | 0 | 0.0 | 0.0 | 0.00 | 0.00 | 0.00 | 60 | 1017.6 |
| 20260502024003 | 47 | 0 | 0.0 | 0.0 | 0.00 | 0.00 | 0.00 | 58 | 1017.6 |
| 20260502023102 | 47 | 0 | 0.0 | 0.0 | 0.00 | 0.00 | 0.00 | 57 | 1017.6 |
| 20260502020402 | 49 | 0 | 0.0 | 0.0 | 0.00 | 0.00 | 0.00 | 50 | 1017.3 |
| 20260502015502 | 49 | 0 | 0.0 | 0.0 | 0.00 | 0.00 | 0.00 | 47 | 1017.2 |
| 20260502013702 | 50 | 356 | 0.0 | 2.0 | 0.00 | 0.00 | 0.00 | 45 | 1017.0 |
| 20260502011902 | 51 | 0 | 0.0 | 0.0 | 0.00 | 0.00 | 0.00 | 40 | 1016.9 |
| 20260502011002 | 52 | 308 | 0.0 | 1.0 | 0.00 | 0.00 | 0.00 | 37 | 1016.9 |
| 20260502005202 | 52 | 317 | 3.0 | 5.0 | 0.00 | 0.00 | 0.00 | 36 | 1017.0 |
| 20260502004302 | 52 | 321 | 4.0 | 6.0 | 0.00 | 0.00 | 0.00 | 36 | 1016.9 |
| 20260502003402 | 53 | 316 | 4.0 | 8.0 | 0.00 | 0.00 | 0.00 | 36 | 1016.9 |
| 20260502002502 | 53 | 312 | 6.0 | 10.0 | 0.00 | 0.00 | 0.00 | 35 | 1016.9 |
| 20260502001602 | 53 | 333 | 9.0 | 12.0 | 0.00 | 0.00 | 0.00 | 35 | 1016.9 |
| 20260501235802 | 53 | 315 | 4.0 | 9.0 | 0.00 | 0.00 | 0.00 | 34 | 1016.9 |
| 20260501234902 | 53 | 350 | 4.0 | 11.0 | 0.00 | 0.00 | 0.00 | 34 | 1017.0 |
| 20260501234002 | 53 | 336 | 6.0 | 12.0 | 0.00 | 0.00 | 0.00 | 34 | 1017.0 |
| 20260501233102 | 53 | 320 | 9.0 | 18.0 | 0.00 | 0.00 | 0.00 | 34 | 1017.0 |
| 20260501231302 | 53 | 326 | 11.0 | 17.0 | 0.00 | 0.00 | 0.00 | 34 | 1017.0 |
| 20260501230402 | 53 | 320 | 8.0 | 15.0 | 0.00 | 0.00 | 0.00 | 37 | 1017.0 |
| 20260501224602 | 52 | 344 | 11.0 | 16.0 | 0.00 | 0.00 | 0.00 | 37 | 1017.1 |
| 20260501223702 | 52 | 332 | 10.0 | 14.0 | 0.00 | 0.00 | 0.00 | 36 | 1017.1 |
| 20260501222802 | 52 | 321 | 9.0 | 16.0 | 0.00 | 0.00 | 0.00 | 36 | 1017.1 |
| 20260501221902 | 53 | 313 | 9.0 | 16.0 | 0.00 | 0.00 | 0.00 | 35 | 1017.1 |
| 20260501221002 | 53 | 319 | 11.0 | 17.0 | 0.00 | 0.00 | 0.00 | 35 | 1017.1 |
| 20260501214301 | 52 | 327 | 7.0 | 12.0 | 0.00 | 0.00 | 0.00 | 35 | 1017.1 |
| 20260501212501 | 52 | 312 | 10.0 | 20.0 | 0.00 | 0.00 | 0.00 | 36 | 1017.2 |
| 20260501211601 | 53 | 306 | 9.0 | 15.0 | 0.00 | 0.00 | 0.00 | 37 | 1017.2 |
| 20260501210701 | 52 | 325 | 8.0 | 15.0 | 0.00 | 0.00 | 0.00 | 36 | 1017.3 |
| 20260501205801 | 52 | 335 | 11.0 | 21.0 | 0.00 | 0.00 | 0.00 | 35 | 1017.4 |
| 20260501204901 | 53 | 312 | 6.0 | 14.0 | 0.00 | 0.00 | 0.00 | 36 | 1017.5 |
| 20260501203101 | 51 | 357 | 6.0 | 15.0 | 0.00 | 0.00 | 0.00 | 36 | 1017.5 |
| 20260501202201 | 51 | 2 | 11.0 | 20.0 | 0.00 | 0.00 | 0.00 | 38 | 1017.6 |
| 20260501201301 | 52 | 340 | 9.0 | 20.0 | 0.00 | 0.00 | 0.00 | 38 | 1017.6 |
| 20260501200401 | 51 | 337 | 11.0 | 16.0 | 0.00 | 0.00 | 0.00 | 39 | 1017.7 |
| 20260501195501 | 51 | 345 | 10.0 | 17.0 | 0.00 | 0.00 | 0.00 | 38 | 1017.6 |
| 20260501194601 | 50 | 352 | 10.0 | 15.0 | 0.00 | 0.00 | 0.00 | 39 | 1017.7 |
| 20260501193701 | 50 | 335 | 6.0 | 13.0 | 0.00 | 0.00 | 0.00 | 39 | 1017.7 |
| 20260501192801 | 50 | 340 | 10.0 | 17.0 | 0.00 | 0.00 | 0.00 | 39 | 1017.8 |
| 20260501191901 | 50 | 9 | 8.0 | 18.0 | 0.00 | 0.00 | 0.00 | 40 | 1017.8 |
| 20260501191001 | 50 | 4 | 7.0 | 15.0 | 0.00 | 0.00 | 0.00 | 40 | 1017.7 |
| 20260501190101 | 50 | 3 | 9.0 | 14.0 | 0.00 | 0.00 | 0.00 | 39 | 1017.8 |
| 20260501184301 | 50 | 353 | 7.0 | 18.0 | 0.00 | 0.00 | 0.00 | 41 | 1017.7 |